createdAt,value
2022-11-02T00:01:32.991Z,47.96
2022-11-02T00:02:43.920Z,47.91
2022-11-02T00:03:54.136Z,47.98
2022-11-02T00:07:45.251Z,48.03
2022-11-02T00:10:12.097Z,48.09
2022-11-02T00:12:36.890Z,48.18
2022-11-02T00:13:46.076Z,48.23
2022-11-02T00:16:14.150Z,48.37
2022-11-02T00:17:23.915Z,48.33
2022-11-02T00:18:35.121Z,48.39
2022-11-02T00:20:59.320Z,48.46
2022-11-02T00:22:08.587Z,48.52
2022-11-02T00:24:33.290Z,48.44
2022-11-02T00:25:46.701Z,48.37
2022-11-02T00:28:11.438Z,48.27
2022-11-02T00:30:39.357Z,48.25
2022-11-02T00:33:03.546Z,48.17
2022-11-02T00:35:27.730Z,48.24
2022-11-02T00:36:37.266Z,48.26
2022-11-02T00:39:02.745Z,48.16
2022-11-02T00:41:27.963Z,48.06
2022-11-02T00:42:37.346Z,48.02
2022-11-02T00:43:45.977Z,48.04
2022-11-02T00:46:15.599Z,47.99
2022-11-02T00:47:25.229Z,48.00
2022-11-02T00:48:35.475Z,47.94
2022-11-02T00:49:44.965Z,47.95
2022-11-02T00:52:10.040Z,47.84
2022-11-02T00:54:37.254Z,47.71
2022-11-02T00:57:04.668Z,47.64
2022-11-02T00:58:15.062Z,47.64
2022-11-02T01:00:39.296Z,47.59
2022-11-02T01:03:05.167Z,49.08
2022-11-02T01:04:15.474Z,49.24
2022-11-02T01:05:24.128Z,49.38
2022-11-02T01:07:49.884Z,49.89
2022-11-02T01:08:59.731Z,49.87
2022-11-02T01:11:27.021Z,50.68
2022-11-02T01:13:54.851Z,50.46
2022-11-02T01:16:22.854Z,50.50
2022-11-02T01:17:31.972Z,50.58
2022-11-02T01:19:56.318Z,50.63
2022-11-02T01:21:08.515Z,50.32
2022-11-02T01:24:53.212Z,50.78
2022-11-02T01:27:42.996Z,50.78
2022-11-02T01:30:12.496Z,50.81
2022-11-02T01:32:38.389Z,50.88
2022-11-02T01:35:05.238Z,51.11
2022-11-02T01:36:17.512Z,51.07
2022-11-02T01:37:27.384Z,51.01
2022-11-02T01:38:37.120Z,51.12
2022-11-02T01:41:01.715Z,51.22
2022-11-02T01:43:37.707Z,51.43
2022-11-02T01:46:12.507Z,51.50
2022-11-02T01:48:53.478Z,51.40
2022-11-02T01:51:30.630Z,51.48
2022-11-02T01:54:22.233Z,51.80
2022-11-02T01:55:35.435Z,51.76
2022-11-02T01:56:49.010Z,51.81
2022-11-02T01:59:23.171Z,52.09
2022-11-02T02:00:33.063Z,52.12
2022-11-02T02:03:04.068Z,52.22
2022-11-02T02:04:14.971Z,52.29
2022-11-02T02:06:41.733Z,52.45
2022-11-02T02:07:52.527Z,52.51
2022-11-02T02:10:20.553Z,52.80
2022-11-02T02:12:48.719Z,52.91
2022-11-02T02:16:07.049Z,53.26
2022-11-02T02:18:49.946Z,53.46
2022-11-02T02:22:22.270Z,53.71
2022-11-02T02:25:15.603Z,53.87
2022-11-02T02:28:22.280Z,54.20
2022-11-02T02:29:38.316Z,54.03
2022-11-02T02:31:10.998Z,54.22
2022-11-02T02:32:32.811Z,54.13
2022-11-02T02:37:01.349Z,54.30
2022-11-02T02:39:59.852Z,54.41
2022-11-02T02:42:36.121Z,54.41
2022-11-02T02:45:21.506Z,54.50
2022-11-02T02:48:10.117Z,54.69
2022-11-02T02:50:57.131Z,54.72
2022-11-02T02:53:42.769Z,54.82
2022-11-02T02:56:13.714Z,54.73
2022-11-02T02:59:02.763Z,54.60
2022-11-02T03:00:18.310Z,54.70
2022-11-02T03:03:01.892Z,54.73
2022-11-02T03:05:36.177Z,54.61
2022-11-02T03:06:51.698Z,54.65
2022-11-02T03:09:37.323Z,55.08
2022-11-02T03:12:21.839Z,55.24
2022-11-02T03:15:43.898Z,55.31
2022-11-02T03:18:31.191Z,55.74
2022-11-02T03:19:50.622Z,55.73
2022-11-02T03:22:52.009Z,55.96
2022-11-02T03:25:33.270Z,56.10
2022-11-02T03:26:53.022Z,56.34
2022-11-02T03:28:06.735Z,56.63
2022-11-02T03:29:37.832Z,56.73
2022-11-02T03:33:45.621Z,57.05
2022-11-02T03:36:27.417Z,56.88
2022-11-02T03:41:46.194Z,57.05
2022-11-02T03:44:20.058Z,57.10
2022-11-02T03:47:00.678Z,57.21
2022-11-02T03:49:32.204Z,57.33
2022-11-02T03:52:06.316Z,57.39
2022-11-02T03:56:01.122Z,57.47
2022-11-02T03:58:37.309Z,57.46
2022-11-02T04:01:08.632Z,57.57
2022-11-02T04:02:21.494Z,57.63
2022-11-02T04:04:52.648Z,57.83
2022-11-02T04:06:04.359Z,57.87
2022-11-02T04:07:18.082Z,57.99
2022-11-02T04:09:56.003Z,57.97
2022-11-02T04:11:25.240Z,58.02
2022-11-02T04:12:54.808Z,58.06
2022-11-02T04:14:22.699Z,57.92
2022-11-02T04:15:32.147Z,58.04
2022-11-02T04:16:42.045Z,57.84
2022-11-02T04:19:29.757Z,58.01
2022-11-02T04:20:44.341Z,57.97
2022-11-02T04:23:48.008Z,58.16
2022-11-02T04:26:32.128Z,58.01
2022-11-02T04:27:44.282Z,58.13
2022-11-02T04:28:54.469Z,58.08
2022-11-02T04:31:20.284Z,57.97
2022-11-02T04:32:48.243Z,57.98
2022-11-02T04:35:15.166Z,57.99
2022-11-02T04:38:04.434Z,58.11
2022-11-02T04:39:15.577Z,58.01
2022-11-02T04:41:42.066Z,57.79
2022-11-02T04:42:54.379Z,57.75
2022-11-02T04:45:20.576Z,57.71
2022-11-02T04:47:50.225Z,57.75
2022-11-02T04:50:16.967Z,57.95
2022-11-02T04:52:43.825Z,58.31
2022-11-02T04:53:54.426Z,58.21
2022-11-02T04:56:19.462Z,58.46
2022-11-02T04:58:55.543Z,58.42
2022-11-02T05:00:08.007Z,58.31
2022-11-02T05:02:35.967Z,58.37
2022-11-02T05:05:17.328Z,58.31
2022-11-02T05:06:26.811Z,58.24
2022-11-02T05:08:52.222Z,57.92
2022-11-02T05:11:17.310Z,58.04
2022-11-02T05:13:45.099Z,57.60
2022-11-02T05:16:16.304Z,57.49
2022-11-02T05:19:04.506Z,56.74
2022-11-02T05:21:30.285Z,56.27
2022-11-02T05:24:00.152Z,56.07
2022-11-02T05:26:29.701Z,55.86
2022-11-02T05:27:39.612Z,56.05
2022-11-02T05:30:08.945Z,56.39
2022-11-02T05:32:34.390Z,55.85
2022-11-02T05:34:59.606Z,55.64
2022-11-02T05:36:10.060Z,55.66
2022-11-02T05:37:21.213Z,55.28
2022-11-02T05:39:49.474Z,55.41
2022-11-02T05:42:14.265Z,55.33
2022-11-02T05:43:24.733Z,55.50
2022-11-02T05:45:55.090Z,55.68
2022-11-02T05:48:23.149Z,55.35
2022-11-02T05:50:48.038Z,55.26
2022-11-02T05:51:57.199Z,54.86
2022-11-02T05:54:22.113Z,54.56
2022-11-02T05:56:47.335Z,53.95
2022-11-02T05:57:57.379Z,53.96
2022-11-02T06:00:23.861Z,53.49
2022-11-02T06:01:43.720Z,53.25
2022-11-02T06:04:14.970Z,53.65
2022-11-02T06:06:42.648Z,53.41
2022-11-02T06:07:52.620Z,53.45
2022-11-02T06:09:06.873Z,53.47
2022-11-02T06:11:30.534Z,53.52
2022-11-02T06:13:56.279Z,53.19
2022-11-02T06:16:23.805Z,52.67
2022-11-02T06:18:55.626Z,52.18
2022-11-02T06:21:21.997Z,52.11
2022-11-02T06:23:49.560Z,52.12
2022-11-02T06:26:14.001Z,52.39
2022-11-02T06:27:23.123Z,52.21
2022-11-02T06:29:47.390Z,52.37
2022-11-02T06:32:11.534Z,52.03
2022-11-02T06:34:37.490Z,52.33
2022-11-02T06:37:11.860Z,51.97
2022-11-02T06:39:38.292Z,52.14
2022-11-02T06:42:15.738Z,51.94
2022-11-02T06:44:41.181Z,51.82
2022-11-02T06:47:05.294Z,51.94
2022-11-02T06:49:29.856Z,51.88
2022-11-02T06:51:53.555Z,51.17
2022-11-02T06:54:18.644Z,51.00
2022-11-02T06:56:43.415Z,51.74
2022-11-02T06:59:07.978Z,51.90
2022-11-02T07:01:32.454Z,52.58
2022-11-02T07:03:56.517Z,52.98
2022-11-02T07:06:21.596Z,52.95
2022-11-02T07:08:45.235Z,53.19
2022-11-02T07:11:14.921Z,53.76
2022-11-02T07:12:23.643Z,53.31
2022-11-02T07:14:47.720Z,53.21
2022-11-02T07:15:57.530Z,53.34
2022-11-02T07:18:22.974Z,53.32
2022-11-02T07:20:48.248Z,53.48
2022-11-02T07:21:58.272Z,53.23
2022-11-02T07:24:24.807Z,53.36
2022-11-02T07:26:50.253Z,53.41
2022-11-02T07:29:19.664Z,53.73
2022-11-02T07:31:47.419Z,53.52
2022-11-02T07:32:57.241Z,53.22
2022-11-02T07:34:11.686Z,53.02
2022-11-02T07:36:34.826Z,53.12
2022-11-02T07:39:00.221Z,53.21
2022-11-02T07:41:26.657Z,52.37
2022-11-02T07:42:35.509Z,52.28
2022-11-02T07:43:46.323Z,52.37
2022-11-02T07:46:25.781Z,52.34
2022-11-02T07:48:53.147Z,52.29
2022-11-02T07:51:17.856Z,52.04
2022-11-02T07:53:42.428Z,51.49
2022-11-02T07:54:52.272Z,51.32
2022-11-02T07:57:17.283Z,51.19
2022-11-02T07:59:42.676Z,50.81
2022-11-02T08:02:11.056Z,50.97
2022-11-02T08:03:23.494Z,50.89
2022-11-02T08:05:48.349Z,50.42
2022-11-02T08:06:58.656Z,50.41
2022-11-02T08:09:29.437Z,50.01
2022-11-02T08:11:56.569Z,49.42
2022-11-02T08:14:21.276Z,49.45
2022-11-02T08:16:47.149Z,48.89
2022-11-02T08:19:18.435Z,48.99
2022-11-02T08:21:43.177Z,48.29
2022-11-02T08:22:52.105Z,48.35
2022-11-02T08:25:17.313Z,48.38
2022-11-02T08:27:43.877Z,47.24
2022-11-02T08:30:09.498Z,47.25
2022-11-02T08:32:34.182Z,47.22
2022-11-02T08:35:00.285Z,46.63
2022-11-02T08:37:27.051Z,46.17
2022-11-02T08:39:51.761Z,46.31
2022-11-02T08:42:15.772Z,46.31
2022-11-02T08:43:24.726Z,46.51
2022-11-02T08:48:16.346Z,46.33
2022-11-02T08:49:26.402Z,46.30
2022-11-02T08:50:38.244Z,45.82
2022-11-02T08:53:04.074Z,45.73
2022-11-02T08:55:31.277Z,45.40
2022-11-02T08:57:58.379Z,45.43
2022-11-02T09:01:43.153Z,45.16
2022-11-02T09:04:25.957Z,45.47
2022-11-02T09:06:52.861Z,44.85
2022-11-02T09:09:21.004Z,44.71
2022-11-02T09:11:50.316Z,44.41
2022-11-02T09:14:16.125Z,44.10
2022-11-02T09:15:26.338Z,43.98
2022-11-02T09:16:41.027Z,44.55
2022-11-02T09:19:03.578Z,44.22
2022-11-02T09:20:13.384Z,44.14
2022-11-02T09:22:37.264Z,44.65
2022-11-02T09:25:04.367Z,44.48
2022-11-02T09:29:11.208Z,44.17
2022-11-02T09:31:37.370Z,44.10
2022-11-02T09:34:15.946Z,43.52
2022-11-02T09:35:27.063Z,43.74
2022-11-02T09:36:36.804Z,43.62
2022-11-02T09:39:01.846Z,43.87
2022-11-02T09:40:11.791Z,44.07
2022-11-02T09:42:44.005Z,44.06
2022-11-02T09:44:03.077Z,44.02
2022-11-02T09:46:40.751Z,43.78
2022-11-02T09:49:17.529Z,42.98
2022-11-02T09:51:57.030Z,43.19
2022-11-02T09:55:59.344Z,43.39
2022-11-02T09:58:40.029Z,42.85
2022-11-02T10:01:20.139Z,42.93
2022-11-02T10:02:37.430Z,43.07
2022-11-02T10:05:46.738Z,43.31
2022-11-02T10:08:21.129Z,43.50
2022-11-02T10:11:15.035Z,43.17
2022-11-02T10:17:25.980Z,42.83
2022-11-02T10:19:59.319Z,43.11
2022-11-02T10:22:31.624Z,43.05
2022-11-02T10:25:07.634Z,42.92
2022-11-02T10:27:45.459Z,42.94
2022-11-02T10:30:21.270Z,42.90
2022-11-02T10:32:53.025Z,42.72
2022-11-02T10:36:04.778Z,42.43
2022-11-02T10:38:35.028Z,42.53
2022-11-02T10:41:25.460Z,42.55
2022-11-02T10:43:07.352Z,42.52
2022-11-02T10:45:58.320Z,42.55
2022-11-02T10:47:21.239Z,42.58
2022-11-02T10:50:14.522Z,42.40
2022-11-02T10:52:44.696Z,42.71
2022-11-02T10:57:04.898Z,42.85
2022-11-02T10:59:33.550Z,43.00
2022-11-02T11:02:03.943Z,42.87
2022-11-02T11:04:34.781Z,42.88
2022-11-02T11:05:57.049Z,43.07
2022-11-02T11:08:42.843Z,43.13
2022-11-02T11:11:26.050Z,43.29
2022-11-02T11:12:41.496Z,43.36
2022-11-02T11:20:54.843Z,43.31
2022-11-02T11:23:26.160Z,43.18
2022-11-02T11:26:04.238Z,42.98
2022-11-02T11:27:20.059Z,42.74
2022-11-02T11:29:56.579Z,42.66
2022-11-02T11:31:18.351Z,42.66
2022-11-02T11:32:30.730Z,42.36
2022-11-02T11:35:17.745Z,42.46
2022-11-02T11:36:35.757Z,42.57
2022-11-02T11:37:57.150Z,42.51
2022-11-02T11:40:41.491Z,42.64
2022-11-02T11:41:51.500Z,42.71
2022-11-02T11:44:23.049Z,42.89
2022-11-02T11:46:51.758Z,42.83
2022-11-02T11:50:09.784Z,42.45
2022-11-02T11:55:14.557Z,42.57
2022-11-02T11:57:44.815Z,42.65
2022-11-02T12:00:27.201Z,42.69
2022-11-02T12:03:16.565Z,42.59
2022-11-02T12:07:16.682Z,42.57
2022-11-02T12:10:25.674Z,42.68
2022-11-02T12:13:34.281Z,42.83
2022-11-02T12:18:09.023Z,42.74
2022-11-02T12:21:36.311Z,43.18
2022-11-02T12:24:42.698Z,43.57
2022-11-02T12:27:34.554Z,44.02
2022-11-02T12:30:51.669Z,44.29
2022-11-02T12:35:27.133Z,44.62
2022-11-02T12:37:54.652Z,44.83
2022-11-02T12:40:41.714Z,44.91
2022-11-02T12:42:04.371Z,44.88
2022-11-02T12:46:29.984Z,44.78
2022-11-02T12:49:21.323Z,44.59
2022-11-02T12:52:25.167Z,44.47
2022-11-02T12:55:17.265Z,44.44
2022-11-02T12:57:49.278Z,44.08
2022-11-02T13:00:39.586Z,43.97
2022-11-02T13:03:29.219Z,44.07
2022-11-02T13:04:59.699Z,43.97
2022-11-02T13:07:53.210Z,44.22
2022-11-02T13:10:32.132Z,44.35
2022-11-02T13:11:45.152Z,44.29
2022-11-02T13:14:19.352Z,44.19
2022-11-02T13:16:56.241Z,44.35
2022-11-02T13:19:39.933Z,44.50
2022-11-02T13:20:55.174Z,44.50
2022-11-02T13:22:07.478Z,44.45
2022-11-02T13:23:32.661Z,44.61
2022-11-02T13:26:17.070Z,44.62
2022-11-02T13:30:16.817Z,44.96
2022-11-02T13:32:52.208Z,45.20
2022-11-02T13:35:34.476Z,45.39
2022-11-02T13:38:07.551Z,45.50
2022-11-02T13:40:47.474Z,45.49
2022-11-02T13:43:37.722Z,45.65
2022-11-02T13:46:29.697Z,45.88
2022-11-02T13:48:01.383Z,45.95
2022-11-02T13:50:48.823Z,46.05
2022-11-02T13:53:33.008Z,46.07
2022-11-02T13:54:46.161Z,46.06
2022-11-02T13:57:33.780Z,46.16
2022-11-02T14:01:39.049Z,46.35
2022-11-02T14:04:10.114Z,46.43
2022-11-02T14:07:02.647Z,46.61
2022-11-02T14:09:42.229Z,46.66
2022-11-02T14:12:28.218Z,46.69
2022-11-02T14:15:18.361Z,46.78
2022-11-02T14:18:13.971Z,46.90
2022-11-02T14:20:59.267Z,47.07
2022-11-02T14:23:35.998Z,47.17
2022-11-02T14:24:48.832Z,47.21
2022-11-02T14:27:25.131Z,47.45
2022-11-02T14:29:57.917Z,47.69
2022-11-02T14:32:34.890Z,47.90
2022-11-02T14:35:30.164Z,48.06
2022-11-02T14:38:29.673Z,48.22
2022-11-02T14:41:36.755Z,48.41
2022-11-02T14:44:32.724Z,48.50
2022-11-02T14:47:33.537Z,48.79
2022-11-02T14:51:36.394Z,48.89
2022-11-02T14:54:19.216Z,48.94
2022-11-02T14:55:31.204Z,48.89
2022-11-02T14:57:18.237Z,48.95
2022-11-02T14:59:56.063Z,48.90
2022-11-02T15:02:42.975Z,48.71
2022-11-02T15:05:09.326Z,48.71
2022-11-02T15:08:01.681Z,48.78
2022-11-02T15:11:59.179Z,48.89
2022-11-02T15:14:39.409Z,48.81
2022-11-02T15:17:16.828Z,48.89
2022-11-02T15:19:51.336Z,48.61
2022-11-02T15:24:05.649Z,48.48
2022-11-02T15:26:49.257Z,48.48
2022-11-02T15:29:28.273Z,48.33
2022-11-02T15:32:22.612Z,48.34
2022-11-02T15:35:03.644Z,48.34
2022-11-02T15:37:50.524Z,48.28
2022-11-02T15:40:25.929Z,48.11
2022-11-02T15:43:10.186Z,48.01
2022-11-02T15:46:22.606Z,47.89
2022-11-02T15:49:05.506Z,47.81
2022-11-02T15:51:52.386Z,47.74
2022-11-02T15:55:06.954Z,47.58
2022-11-02T15:58:35.335Z,47.48
2022-11-02T16:01:19.032Z,47.60
2022-11-02T16:03:52.020Z,47.57
2022-11-02T16:06:34.583Z,47.65
2022-11-02T16:09:01.387Z,47.75
2022-11-02T16:11:39.483Z,47.60
2022-11-02T16:14:18.884Z,47.76
2022-11-02T16:16:48.903Z,47.72
2022-11-02T16:19:22.254Z,47.61
2022-11-02T16:21:50.732Z,47.51
2022-11-02T16:24:20.265Z,47.52
2022-11-02T16:26:51.585Z,47.63
2022-11-02T16:29:38.905Z,47.69
2022-11-02T16:32:24.617Z,47.68
2022-11-02T16:34:54.090Z,47.54
2022-11-02T16:37:20.286Z,47.70
2022-11-02T16:39:48.015Z,47.66
2022-11-02T16:40:57.372Z,47.71
2022-11-02T16:43:35.641Z,47.66
2022-11-02T16:46:18.439Z,47.71
2022-11-02T16:50:25.233Z,47.96
2022-11-02T16:53:00.757Z,48.06
2022-11-02T16:55:48.062Z,48.14
2022-11-02T16:58:24.427Z,48.24
2022-11-02T17:00:55.465Z,48.29
2022-11-02T17:03:25.501Z,48.45
2022-11-02T17:05:54.064Z,48.51
2022-11-02T17:08:34.596Z,48.48
2022-11-02T17:11:03.358Z,48.63
2022-11-02T17:13:33.455Z,48.63
2022-11-02T17:16:09.732Z,48.47
2022-11-02T17:18:45.411Z,48.57
2022-11-02T17:21:17.194Z,48.74
2022-11-02T17:23:46.703Z,48.85
2022-11-02T17:26:32.372Z,48.84
2022-11-02T17:29:06.196Z,48.93
2022-11-02T17:31:56.778Z,49.03
2022-11-02T17:34:56.220Z,49.16
2022-11-02T17:37:28.721Z,49.32
2022-11-02T17:39:54.651Z,49.43
2022-11-02T17:42:39.347Z,49.66
2022-11-02T17:45:24.012Z,49.83
2022-11-02T17:47:48.195Z,50.12
2022-11-02T17:50:13.028Z,50.35
2022-11-02T17:52:40.394Z,50.50
2022-11-02T17:55:07.426Z,50.68
2022-11-02T17:56:17.323Z,50.71
2022-11-02T17:58:41.545Z,50.77
2022-11-02T18:01:13.691Z,50.92
2022-11-02T18:02:23.984Z,50.91
2022-11-02T18:03:33.200Z,50.96
2022-11-02T18:05:59.777Z,51.14
2022-11-02T18:08:24.874Z,51.26
2022-11-02T18:10:51.254Z,51.37
2022-11-02T18:13:21.220Z,51.37
2022-11-02T18:15:46.306Z,51.46
2022-11-02T18:18:10.835Z,51.53
2022-11-02T18:19:19.997Z,51.55
2022-11-02T18:20:29.207Z,51.54
2022-11-02T18:21:38.980Z,51.58
2022-11-02T18:22:47.552Z,51.67
2022-11-02T18:23:57.188Z,51.82
2022-11-02T18:26:30.538Z,51.74
2022-11-02T18:27:41.613Z,51.79
2022-11-02T18:30:08.530Z,51.90
2022-11-02T23:17:43.519Z,66.57
2022-11-02T23:20:37.091Z,66.37
2022-11-02T23:22:23.076Z,66.08
2022-11-02T23:23:52.018Z,66.02
2022-11-02T23:26:27.693Z,65.32
2022-11-02T23:30:03.568Z,65.02
2022-11-02T23:31:31.730Z,64.82
2022-11-02T23:33:55.355Z,64.89
2022-11-02T23:37:21.653Z,64.85
2022-11-02T23:38:49.490Z,64.64
2022-11-02T23:39:58.467Z,64.48
2022-11-02T23:41:14.148Z,64.57
2022-11-02T23:43:39.497Z,64.50
2022-11-02T23:46:04.269Z,64.42
2022-11-02T23:48:28.760Z,64.27
2022-11-02T23:51:17.430Z,64.42
2022-11-02T23:52:44.353Z,64.37
2022-11-02T23:57:29.619Z,64.22
2022-11-02T23:59:53.291Z,63.99
